Time;durP1;ratioP1;P1;durP2;ratioP2;P2;SDS_P1;SDS_P2;PMS_P1;PMS_P2;Temp;Humidity;BMP_temperature;BMP_pressure;BME280_temperature;BME280_humidity;BME280_pressure;Samples;Min_cycle;Max_cycle;Signal;HPM_P1;HPM_P2
2023/12/29 00:00:49;;;;;;;6.07;1.60;;;10.00;99.90;;;;;;5075124;28;20217;-53
2023/12/29 00:03:16;;;;;;;5.90;2.27;;;9.90;99.90;;;;;;5064081;28;20315;-54
2023/12/29 00:05:43;;;;;;;6.70;1.50;;;9.90;99.90;;;;;;5082448;28;20687;-51
2023/12/29 00:08:10;;;;;;;6.60;1.63;;;9.90;99.90;;;;;;5076628;28;20205;-50
2023/12/29 00:10:37;;;;;;;5.07;1.90;;;9.70;99.90;;;;;;5041727;28;20209;-53
2023/12/29 00:13:04;;;;;;;4.57;1.63;;;9.70;99.90;;;;;;5084409;28;20345;-52
2023/12/29 00:15:32;;;;;;;7.10;1.80;;;9.60;99.90;;;;;;5081387;28;20268;-51
2023/12/29 00:17:59;;;;;;;5.63;1.87;;;9.50;99.90;;;;;;5070583;28;20206;-50
2023/12/29 00:20:26;;;;;;;8.10;1.70;;;9.40;99.90;;;;;;5083973;28;20919;-52
2023/12/29 00:22:53;;;;;;;7.67;1.60;;;9.40;99.90;;;;;;5080196;28;20265;-52
2023/12/29 00:25:20;;;;;;;6.20;1.67;;;9.30;99.90;;;;;;5074477;28;20186;-50
2023/12/29 00:27:47;;;;;;;10.40;1.93;;;9.20;99.90;;;;;;5047359;28;20229;-52
2023/12/29 00:30:14;;;;;;;12.50;2.30;;;9.20;99.90;;;;;;5072804;28;20193;-51
2023/12/29 00:32:42;;;;;;;10.63;1.63;;;9.20;99.90;;;;;;5059328;28;20259;-52
2023/12/29 00:35:09;;;;;;;4.63;1.70;;;9.10;99.90;;;;;;5061549;28;20201;-52
2023/12/29 00:37:36;;;;;;;5.93;1.97;;;9.10;99.90;;;;;;5082970;28;20678;-51
2023/12/29 00:40:05;;;;;;;6.67;1.73;;;9.10;99.90;;;;;;5087130;28;20191;-51
2023/12/29 00:42:31;;;;;;;6.70;1.87;;;9.10;99.90;;;;;;5063640;28;20973;-53
2023/12/29 00:45:00;;;;;;;5.07;1.83;;;9.00;99.90;;;;;;5083213;28;20206;-52
2023/12/29 00:47:26;;;;;;;6.20;2.07;;;9.00;99.90;;;;;;5074091;28;20198;-51
2023/12/29 00:49:55;;;;;;;5.93;2.13;;;9.00;99.90;;;;;;5062844;28;20205;-52
2023/12/29 00:52:21;;;;;;;8.87;2.20;;;9.00;99.90;;;;;;5076950;28;20333;-51
2023/12/29 00:54:48;;;;;;;4.77;1.80;;;9.00;99.90;;;;;;5078710;28;20228;-54
2023/12/29 00:57:15;;;;;;;7.83;2.17;;;9.00;99.90;;;;;;5044960;28;20214;-54
2023/12/29 00:59:43;;;;;;;2.83;1.77;;;9.00;99.90;;;;;;5081435;28;20189;-51
2023/12/29 01:02:10;;;;;;;5.90;1.97;;;9.00;99.90;;;;;;5076160;28;20216;-53
2023/12/29 01:04:39;;;;;;;8.77;2.00;;;9.00;99.90;;;;;;5057521;28;20224;-51
2023/12/29 01:07:07;;;;;;;10.43;2.40;;;9.00;99.90;;;;;;5085874;28;20217;-54
2023/12/29 01:09:39;;;;;;;6.47;1.97;;;9.00;99.90;;;;;;5078408;28;20903;-53
2023/12/29 01:12:07;;;;;;;8.70;2.00;;;9.00;99.90;;;;;;5080260;28;20274;-53
2023/12/29 01:14:33;;;;;;;2.63;1.73;;;9.00;99.90;;;;;;5058615;28;20275;-52
2023/12/29 01:17:00;;;;;;;5.17;1.60;;;9.00;99.90;;;;;;5084304;28;20256;-53
2023/12/29 01:19:27;;;;;;;5.43;2.30;;;9.00;99.90;;;;;;5057110;28;20209;-52
2023/12/29 01:21:54;;;;;;;13.10;2.83;;;8.90;99.90;;;;;;5065229;28;20281;-55
2023/12/29 01:24:23;;;;;;;6.60;2.03;;;9.00;99.90;;;;;;5074987;28;20217;-52
2023/12/29 01:26:50;;;;;;;6.60;2.90;;;9.00;99.90;;;;;;5075875;28;20195;-53
2023/12/29 01:29:17;;;;;;;7.40;1.93;;;8.90;99.90;;;;;;5054576;28;20831;-52
2023/12/29 01:31:44;;;;;;;7.93;2.20;;;9.00;99.90;;;;;;5080988;28;20214;-52
2023/12/29 01:34:10;;;;;;;8.07;1.80;;;9.00;99.90;;;;;;5055084;28;20189;-52
2023/12/29 01:36:37;;;;;;;8.17;1.73;;;9.00;99.90;;;;;;5083449;28;20579;-52
2023/12/29 01:39:04;;;;;;;4.47;1.80;;;8.90;99.90;;;;;;5073433;28;20282;-51
2023/12/29 01:41:32;;;;;;;5.83;2.83;;;9.00;99.90;;;;;;5087228;28;20217;-55
2023/12/29 01:44:20;;;;;;;5.23;2.17;;;9.00;99.90;;;;;;5046414;28;20217;-54
2023/12/29 01:46:49;;;;;;;3.90;1.87;;;8.90;99.90;;;;;;5058053;28;20290;-53
2023/12/29 01:49:18;;;;;;;4.50;1.90;;;9.00;99.90;;;;;;5092129;28;20190;-53
2023/12/29 01:51:45;;;;;;;10.50;1.70;;;8.90;99.90;;;;;;5050561;28;20214;-54
2023/12/29 01:54:13;;;;;;;4.80;2.03;;;8.90;99.90;;;;;;5077366;28;20190;-55
2023/12/29 01:56:43;;;;;;;5.43;1.73;;;8.90;99.90;;;;;;5081580;28;20190;-53
2023/12/29 01:59:10;;;;;;;5.70;1.90;;;8.90;99.90;;;;;;5054589;28;20689;-52
2023/12/29 02:01:38;;;;;;;3.43;2.23;;;8.90;99.90;;;;;;5084040;28;20336;-54
2023/12/29 02:04:06;;;;;;;5.80;1.87;;;8.90;99.90;;;;;;5087514;28;20210;-54
2023/12/29 02:06:34;;;;;;;6.37;1.87;;;9.00;99.90;;;;;;5067453;28;20228;-54
2023/12/29 02:09:03;;;;;;;5.90;1.40;;;9.00;99.90;;;;;;5083442;28;20236;-50
2023/12/29 02:11:30;;;;;;;9.20;2.03;;;9.00;99.90;;;;;;5081239;28;20641;-53
2023/12/29 02:14:00;;;;;;;11.37;2.17;;;9.00;99.90;;;;;;5054617;28;20296;-50
2023/12/29 02:16:36;;;;;;;4.87;1.63;;;9.00;99.90;;;;;;5074521;28;20581;-54
2023/12/29 02:19:09;;;;;;;6.73;1.90;;;9.10;99.90;;;;;;5075288;28;20198;-50
2023/12/29 02:21:36;;;;;;;5.67;1.60;;;9.10;99.90;;;;;;5057508;28;20210;-53
2023/12/29 02:24:03;;;;;;;5.57;1.63;;;9.10;99.90;;;;;;5070730;28;20220;-52
2023/12/29 02:26:35;;;;;;;3.93;1.53;;;9.20;99.90;;;;;;5080516;28;20206;-54
2023/12/29 02:29:05;;;;;;;4.93;1.83;;;9.20;99.90;;;;;;5080223;28;21014;-54
2023/12/29 02:31:39;;;;;;;4.70;1.43;;;9.20;99.90;;;;;;5060435;28;20241;-55
2023/12/29 02:34:10;;;;;;;6.17;1.60;;;9.30;99.90;;;;;;5076303;28;20389;-52
2023/12/29 02:36:42;;;;;;;7.00;1.57;;;9.30;99.90;;;;;;5062832;28;20247;-53
2023/12/29 02:39:10;;;;;;;5.63;1.73;;;9.30;99.90;;;;;;5078600;28;20193;-50
2023/12/29 02:41:38;;;;;;;9.53;2.03;;;9.40;99.90;;;;;;5067722;28;21694;-51
2023/12/29 02:44:05;;;;;;;5.27;1.63;;;9.40;99.90;;;;;;5072610;28;20219;-53
2023/12/29 02:46:32;;;;;;;5.37;1.80;;;9.50;99.90;;;;;;5047390;28;20240;-54
2023/12/29 02:48:59;;;;;;;3.43;2.20;;;9.50;99.90;;;;;;5074049;28;20194;-52
2023/12/29 02:51:26;;;;;;;5.50;1.80;;;9.50;99.90;;;;;;5060119;28;20269;-54
2023/12/29 02:53:53;;;;;;;5.67;1.90;;;9.50;99.90;;;;;;5084223;28;20190;-51
2023/12/29 02:56:19;;;;;;;4.67;1.53;;;9.40;99.90;;;;;;5085804;28;20201;-54
2023/12/29 02:58:48;;;;;;;7.27;1.50;;;9.40;99.90;;;;;;5076622;28;20194;-53
2023/12/29 03:01:15;;;;;;;3.83;1.50;;;9.30;99.90;;;;;;5058969;28;20210;-50
2023/12/29 03:03:41;;;;;;;10.67;1.93;;;9.30;99.90;;;;;;5074364;28;20205;-53
2023/12/29 03:06:08;;;;;;;7.17;1.80;;;9.30;99.90;;;;;;5061320;28;20210;-53
2023/12/29 03:08:35;;;;;;;3.27;1.30;;;9.30;99.90;;;;;;5079085;28;20202;-53
2023/12/29 03:11:02;;;;;;;9.47;1.70;;;9.30;99.90;;;;;;5072276;28;20225;-54
2023/12/29 03:13:29;;;;;;;4.37;1.70;;;9.20;99.90;;;;;;5083833;28;20263;-51
2023/12/29 03:15:57;;;;;;;6.07;1.10;;;9.20;99.90;;;;;;5056451;28;20202;-52
2023/12/29 03:18:23;;;;;;;3.07;1.40;;;9.30;99.90;;;;;;5080621;28;20209;-54
2023/12/29 03:20:50;;;;;;;4.90;1.50;;;9.30;99.90;;;;;;5080186;28;20194;-52
2023/12/29 03:23:17;;;;;;;6.27;1.20;;;9.40;99.90;;;;;;5052521;28;20217;-53
2023/12/29 03:25:44;;;;;;;6.57;1.20;;;9.40;99.90;;;;;;5082907;28;20263;-54
2023/12/29 03:28:11;;;;;;;4.77;1.00;;;9.40;99.90;;;;;;5089731;28;20194;-52
2023/12/29 03:30:38;;;;;;;2.97;1.30;;;9.40;99.90;;;;;;5075480;28;20190;-53
2023/12/29 03:33:07;;;;;;;4.20;1.40;;;9.40;99.90;;;;;;5045092;28;20222;-55
2023/12/29 03:35:33;;;;;;;3.10;0.73;;;9.40;99.90;;;;;;5080574;28;20209;-54
2023/12/29 03:38:00;;;;;;;4.47;0.77;;;9.50;99.90;;;;;;5063591;28;20213;-54
2023/12/29 03:40:27;;;;;;;4.63;1.30;;;9.50;99.90;;;;;;5091438;28;20678;-52
2023/12/29 03:42:54;;;;;;;5.40;1.23;;;9.50;99.90;;;;;;5082188;28;20318;-51
2023/12/29 03:45:22;;;;;;;3.63;1.20;;;9.60;99.90;;;;;;5078763;28;20233;-52
2023/12/29 03:47:49;;;;;;;3.13;1.00;;;9.60;99.90;;;;;;5047285;28;20229;-52
2023/12/29 03:50:17;;;;;;;3.77;1.17;;;9.50;99.90;;;;;;5076078;28;20198;-52
2023/12/29 03:52:44;;;;;;;4.37;1.00;;;9.50;99.90;;;;;;5083285;28;20275;-54
2023/12/29 03:55:11;;;;;;;1.87;1.20;;;9.50;99.90;;;;;;5066632;28;20949;-51
2023/12/29 03:57:40;;;;;;;5.67;1.60;;;9.50;99.90;;;;;;5076337;28;20198;-54
2023/12/29 04:00:08;;;;;;;1.77;1.00;;;9.50;99.90;;;;;;5081952;28;21002;-51
2023/12/29 04:02:39;;;;;;;5.57;1.23;;;9.50;99.90;;;;;;5060763;28;20221;-51
2023/12/29 04:05:08;;;;;;;3.53;0.80;;;9.40;99.90;;;;;;5070144;28;20217;-50
2023/12/29 04:07:36;;;;;;;3.90;1.20;;;9.40;99.90;;;;;;5080352;28;20279;-52
2023/12/29 04:10:04;;;;;;;2.77;1.13;;;9.40;99.90;;;;;;5052989;28;20283;-50
2023/12/29 04:12:30;;;;;;;1.27;0.80;;;9.40;99.90;;;;;;5087418;28;20230;-53
2023/12/29 04:14:57;;;;;;;3.63;1.13;;;9.40;99.90;;;;;;5078530;28;20182;-51
2023/12/29 04:17:25;;;;;;;2.50;1.17;;;9.40;99.90;;;;;;5057021;28;20571;-49
2023/12/29 04:19:52;;;;;;;2.03;0.90;;;9.40;99.90;;;;;;5067213;28;20198;-53
2023/12/29 04:22:20;;;;;;;2.67;0.60;;;9.40;99.90;;;;;;5081810;28;20258;-52
2023/12/29 04:24:49;;;;;;;4.30;0.60;;;9.40;99.90;;;;;;5065125;28;20217;-48
2023/12/29 04:27:16;;;;;;;1.53;0.50;;;9.30;99.90;;;;;;5085062;28;20657;-53
2023/12/29 04:29:44;;;;;;;1.77;0.67;;;9.10;99.90;;;;;;5073981;28;20687;-50
2023/12/29 04:32:10;;;;;;;0.50;0.40;;;8.80;99.90;;;;;;5071523;28;20246;-52
2023/12/29 04:34:37;;;;;;;1.37;0.90;;;8.60;99.90;;;;;;5053242;28;20218;-51
2023/12/29 04:37:05;;;;;;;2.07;0.83;;;8.40;99.90;;;;;;5082509;28;20196;-49
2023/12/29 04:39:32;;;;;;;3.00;0.40;;;8.30;99.90;;;;;;5079157;28;20288;-51
2023/12/29 04:42:00;;;;;;;1.17;0.37;;;8.10;99.90;;;;;;5067764;28;21029;-50
2023/12/29 04:44:27;;;;;;;1.27;0.50;;;8.00;99.90;;;;;;5077325;28;20197;-50
2023/12/29 04:46:53;;;;;;;2.90;0.50;;;7.90;99.90;;;;;;5072245;28;20183;-51
2023/12/29 04:49:20;;;;;;;1.80;0.30;;;7.90;99.90;;;;;;5060880;28;20213;-48
2023/12/29 04:51:48;;;;;;;2.03;0.50;;;7.80;99.90;;;;;;5075711;28;20626;-53
2023/12/29 04:54:15;;;;;;;1.43;0.47;;;7.70;99.90;;;;;;5081296;28;20657;-53
2023/12/29 04:56:42;;;;;;;1.73;0.37;;;7.70;99.90;;;;;;5066241;28;20193;-53
2023/12/29 04:59:10;;;;;;;3.50;0.40;;;7.60;99.90;;;;;;5074559;28;20182;-49
2023/12/29 05:01:37;;;;;;;0.73;0.60;;;7.60;99.90;;;;;;5076348;28;20285;-53
2023/12/29 05:04:04;;;;;;;3.07;1.03;;;7.60;99.90;;;;;;5059716;28;20206;-51
2023/12/29 05:06:31;;;;;;;1.00;0.47;;;7.50;99.90;;;;;;5065917;28;20291;-54
2023/12/29 05:08:58;;;;;;;2.77;0.40;;;7.50;99.90;;;;;;5070331;28;20273;-50
2023/12/29 05:11:25;;;;;;;1.97;0.50;;;7.50;99.90;;;;;;5080113;28;20198;-48
2023/12/29 05:13:52;;;;;;;1.93;0.50;;;7.50;99.90;;;;;;5062864;28;20198;-50
2023/12/29 05:16:21;;;;;;;1.63;0.60;;;7.50;99.90;;;;;;5083006;28;20260;-49
2023/12/29 05:18:48;;;;;;;2.10;0.40;;;7.50;99.90;;;;;;5051994;28;20269;-51
2023/12/29 05:21:16;;;;;;;4.53;0.70;;;7.50;99.90;;;;;;5063283;28;20216;-51
2023/12/29 05:23:44;;;;;;;4.17;0.97;;;7.50;99.90;;;;;;5077267;28;20202;-51
2023/12/29 05:26:11;;;;;;;3.33;0.70;;;7.50;99.90;;;;;;5079452;28;20225;-52
2023/12/29 05:28:37;;;;;;;2.53;0.70;;;7.50;99.90;;;;;;5070690;28;20252;-54
2023/12/29 05:31:05;;;;;;;4.13;1.03;;;7.50;99.90;;;;;;5085010;28;20868;-53
2023/12/29 05:33:34;;;;;;;2.53;0.67;;;7.50;99.90;;;;;;5076497;28;20619;-50
2023/12/29 05:36:07;;;;;;;3.30;0.80;;;7.50;99.90;;;;;;5065432;28;20202;-51
2023/12/29 05:38:34;;;;;;;3.67;0.90;;;7.50;99.90;;;;;;5078783;28;20280;-51
2023/12/29 05:41:03;;;;;;;3.27;0.80;;;7.40;99.90;;;;;;5073929;28;20229;-53
2023/12/29 05:43:31;;;;;;;4.83;1.13;;;7.40;99.90;;;;;;5066695;28;20225;-50
2023/12/29 05:45:58;;;;;;;5.67;1.40;;;7.40;99.90;;;;;;5075023;28;20285;-49
2023/12/29 05:48:25;;;;;;;3.87;0.80;;;7.40;99.90;;;;;;5087916;28;20193;-52
2023/12/29 05:50:54;;;;;;;3.90;0.90;;;7.40;99.90;;;;;;5057226;28;20226;-52
2023/12/29 05:53:21;;;;;;;4.20;0.73;;;7.50;99.90;;;;;;5076354;28;20268;-51
2023/12/29 05:55:48;;;;;;;2.90;0.90;;;7.50;99.90;;;;;;5080954;28;20543;-52
2023/12/29 05:58:14;;;;;;;2.60;0.60;;;7.50;99.90;;;;;;5081439;28;20190;-50
2023/12/29 06:00:41;;;;;;;4.73;0.70;;;7.60;99.90;;;;;;5067503;28;20208;-51
2023/12/29 06:03:08;;;;;;;3.67;0.80;;;7.60;99.90;;;;;;5083679;28;20930;-50
2023/12/29 06:05:35;;;;;;;2.93;0.70;;;7.70;99.90;;;;;;5066096;28;20202;-52
2023/12/29 06:08:04;;;;;;;4.77;1.13;;;7.70;99.90;;;;;;5081856;28;20225;-52
2023/12/29 06:10:31;;;;;;;2.47;0.80;;;7.70;99.90;;;;;;5070484;28;20683;-50
2023/12/29 06:12:58;;;;;;;4.87;1.00;;;7.70;99.90;;;;;;5078804;28;20219;-51
2023/12/29 06:15:25;;;;;;;5.40;1.47;;;7.70;99.90;;;;;;5065996;28;20247;-50
2023/12/29 06:17:52;;;;;;;5.60;1.30;;;7.70;99.90;;;;;;5080284;28;20191;-48
2023/12/29 06:20:20;;;;;;;4.77;0.90;;;7.70;99.90;;;;;;5056023;28;20228;-50
2023/12/29 06:22:48;;;;;;;3.53;0.67;;;7.70;99.90;;;;;;5072912;28;20210;-53
2023/12/29 06:25:16;;;;;;;3.23;1.57;;;7.70;99.90;;;;;;5081007;28;20229;-50
2023/12/29 06:27:43;;;;;;;5.37;1.70;;;7.70;99.90;;;;;;5074306;28;21703;-50
2023/12/29 06:30:11;;;;;;;4.87;1.30;;;7.80;99.90;;;;;;5087610;28;20301;-51
2023/12/29 06:32:39;;;;;;;3.77;1.17;;;7.80;99.90;;;;;;5066677;28;20221;-50
2023/12/29 06:35:07;;;;;;;5.70;1.40;;;7.80;99.90;;;;;;5079497;28;20198;-52
2023/12/29 06:37:34;;;;;;;5.73;1.30;;;7.80;99.90;;;;;;5061190;28;20289;-51
2023/12/29 06:40:02;;;;;;;2.73;1.43;;;7.80;99.90;;;;;;5078695;28;20267;-47
2023/12/29 06:42:30;;;;;;;7.97;1.70;;;7.80;99.90;;;;;;5074653;28;20222;-53
2023/12/29 06:44:57;;;;;;;7.13;2.20;;;7.90;99.90;;;;;;5074730;28;20853;-51
2023/12/29 06:47:24;;;;;;;1.77;1.07;;;7.90;99.90;;;;;;5069029;28;20597;-52
2023/12/29 06:49:51;;;;;;;9.50;1.63;;;7.90;99.90;;;;;;5065778;28;20188;-51
2023/12/29 06:52:18;;;;;;;8.80;1.53;;;8.00;99.90;;;;;;5045950;28;20218;-48
2023/12/29 06:54:45;;;;;;;6.50;2.10;;;8.00;99.90;;;;;;5068189;28;20197;-50
2023/12/29 06:57:14;;;;;;;5.27;1.40;;;8.00;99.90;;;;;;5061627;28;20194;-53
2023/12/29 06:59:42;;;;;;;5.67;1.50;;;8.10;99.90;;;;;;5077979;28;20197;-52
2023/12/29 07:02:09;;;;;;;8.60;1.80;;;8.10;99.90;;;;;;5070964;28;20221;-50
2023/12/29 07:04:36;;;;;;;8.67;1.30;;;8.10;99.90;;;;;;5073855;28;20609;-51
2023/12/29 07:07:03;;;;;;;12.87;1.50;;;8.20;99.90;;;;;;5061035;28;20331;-49
2023/12/29 07:09:30;;;;;;;6.67;1.90;;;8.20;99.90;;;;;;5065470;28;20607;-52
2023/12/29 07:11:57;;;;;;;5.90;1.70;;;8.20;99.90;;;;;;5069846;28;20454;-49
2023/12/29 07:14:24;;;;;;;7.27;1.30;;;8.30;99.90;;;;;;5079640;28;20197;-53
2023/12/29 07:16:52;;;;;;;8.13;2.03;;;8.30;99.90;;;;;;5059023;28;20182;-47
2023/12/29 07:19:20;;;;;;;12.23;2.13;;;8.40;99.90;;;;;;5078222;28;20221;-51
2023/12/29 07:21:47;;;;;;;5.43;1.80;;;8.40;99.90;;;;;;5039596;28;20279;-48
2023/12/29 07:24:14;;;;;;;7.67;1.60;;;8.50;99.90;;;;;;5076439;28;20692;-47
2023/12/29 07:26:41;;;;;;;5.90;1.40;;;8.50;99.90;;;;;;5078767;28;20205;-52
2023/12/29 07:29:08;;;;;;;9.73;1.70;;;8.50;99.90;;;;;;5075429;28;20214;-52
2023/12/29 07:31:39;;;;;;;6.80;1.47;;;8.50;99.90;;;;;;5066479;28;20211;-50
2023/12/29 07:34:07;;;;;;;7.77;1.40;;;8.50;99.90;;;;;;5073759;28;20202;-52
2023/12/29 07:36:39;;;;;;;11.17;2.23;;;8.60;99.90;;;;;;5067859;28;20216;-51
2023/12/29 07:39:06;;;;;;;10.27;2.50;;;8.60;99.90;;;;;;5064768;28;20247;-49
2023/12/29 07:41:33;;;;;;;9.73;1.93;;;8.60;99.90;;;;;;5072801;28;20210;-52
2023/12/29 07:44:00;;;;;;;5.97;1.70;;;8.70;99.90;;;;;;5075252;28;20302;-52
2023/12/29 07:46:27;;;;;;;10.80;2.00;;;8.70;99.90;;;;;;5061290;28;20241;-47
2023/12/29 07:48:54;;;;;;;7.03;1.53;;;8.80;99.90;;;;;;5051060;28;20202;-52
2023/12/29 07:51:23;;;;;;;9.33;2.13;;;8.80;99.90;;;;;;5080571;28;20190;-47
2023/12/29 07:53:50;;;;;;;9.20;1.90;;;8.90;99.90;;;;;;5048787;28;20201;-48
2023/12/29 07:56:17;;;;;;;11.17;2.53;;;9.00;99.90;;;;;;5070526;28;20285;-50
2023/12/29 07:58:44;;;;;;;7.17;1.77;;;9.00;99.90;;;;;;5062613;28;20981;-48
2023/12/29 08:01:11;;;;;;;9.63;1.80;;;9.00;99.90;;;;;;5069968;28;20198;-48
2023/12/29 08:03:38;;;;;;;10.63;1.73;;;9.00;99.90;;;;;;5061599;28;20189;-52
2023/12/29 08:06:05;;;;;;;9.23;2.37;;;9.00;99.90;;;;;;5074535;28;20214;-51
2023/12/29 08:08:34;;;;;;;10.63;2.77;;;9.00;99.90;;;;;;5049863;28;20630;-52
2023/12/29 08:11:01;;;;;;;7.63;1.87;;;9.10;99.90;;;;;;5082935;28;20281;-47
2023/12/29 08:13:28;;;;;;;12.83;2.30;;;9.10;99.90;;;;;;5073659;28;20695;-49
2023/12/29 08:15:55;;;;;;;9.83;2.73;;;9.10;99.90;;;;;;5074979;28;20190;-50
2023/12/29 08:18:22;;;;;;;11.37;2.30;;;9.10;99.90;;;;;;5079653;28;20822;-52
2023/12/29 08:20:49;;;;;;;7.10;1.83;;;9.10;99.90;;;;;;5054372;28;20197;-49
2023/12/29 08:23:15;;;;;;;11.63;2.23;;;9.10;99.90;;;;;;5075316;28;20440;-50
2023/12/29 08:25:44;;;;;;;8.63;2.20;;;9.20;99.90;;;;;;5055445;28;20243;-50
2023/12/29 08:28:10;;;;;;;12.80;2.37;;;9.20;99.90;;;;;;5064863;28;20206;-50
2023/12/29 08:30:38;;;;;;;6.17;1.70;;;9.20;99.90;;;;;;5070246;28;20228;-52
2023/12/29 08:33:05;;;;;;;9.47;1.77;;;9.20;99.90;;;;;;5072079;28;20221;-53
2023/12/29 08:35:32;;;;;;;8.37;2.33;;;9.20;99.90;;;;;;5065594;28;20205;-52
2023/12/29 08:37:59;;;;;;;11.00;2.57;;;9.30;99.90;;;;;;5075399;28;20202;-52
2023/12/29 08:40:25;;;;;;;8.53;1.90;;;9.30;99.90;;;;;;5051997;28;20201;-50
2023/12/29 08:42:54;;;;;;;7.33;2.43;;;9.30;99.90;;;;;;5073242;28;20260;-51
2023/12/29 08:45:21;;;;;;;8.53;2.00;;;9.30;99.90;;;;;;5052621;28;21017;-52
2023/12/29 08:47:48;;;;;;;7.37;2.30;;;9.30;99.90;;;;;;5072813;28;20942;-50
2023/12/29 08:50:15;;;;;;;10.00;2.30;;;9.40;99.90;;;;;;5061822;28;20247;-52
2023/12/29 08:52:42;;;;;;;10.60;2.10;;;9.40;99.90;;;;;;5073633;28;20206;-48
2023/12/29 08:55:09;;;;;;;6.77;1.80;;;9.40;99.90;;;;;;5054978;28;20205;-53
2023/12/29 08:57:36;;;;;;;13.57;3.03;;;9.40;99.90;;;;;;5070926;28;20185;-49
2023/12/29 09:00:06;;;;;;;11.30;2.10;;;9.40;99.90;;;;;;5066834;28;20251;-50
2023/12/29 09:02:33;;;;;;;12.47;2.40;;;9.50;99.90;;;;;;5070045;28;20319;-48
2023/12/29 09:05:00;;;;;;;7.17;1.47;;;9.50;99.90;;;;;;5056680;28;20199;-49
2023/12/29 09:07:28;;;;;;;6.87;1.93;;;9.40;99.90;;;;;;5076047;28;20213;-53
2023/12/29 09:09:54;;;;;;;8.93;1.57;;;9.50;99.90;;;;;;5055548;28;20209;-50
2023/12/29 09:12:21;;;;;;;6.77;1.53;;;9.30;99.90;;;;;;5090695;28;20218;-52
2023/12/29 09:14:48;;;;;;;5.07;1.27;;;9.10;99.90;;;;;;5074040;28;20206;-51
2023/12/29 09:17:16;;;;;;;9.07;1.87;;;9.00;99.90;;;;;;5084644;28;20182;-52
2023/12/29 09:19:43;;;;;;;5.00;1.10;;;8.80;99.90;;;;;;5074353;28;20433;-51
2023/12/29 09:22:10;;;;;;;3.83;1.03;;;8.50;99.90;;;;;;5062307;28;20236;-50
2023/12/29 09:24:37;;;;;;;3.43;0.90;;;8.20;99.90;;;;;;5053061;28;20298;-52
2023/12/29 09:27:04;;;;;;;2.70;0.60;;;8.00;99.90;;;;;;5093952;28;20700;-54
2023/12/29 09:29:31;;;;;;;3.67;0.80;;;7.80;99.90;;;;;;5076057;28;20216;-52
2023/12/29 09:31:58;;;;;;;4.00;0.80;;;7.80;99.90;;;;;;5077936;28;20221;-52
2023/12/29 09:34:26;;;;;;;5.27;0.90;;;7.70;99.90;;;;;;5072834;28;20206;-54
2023/12/29 09:36:53;;;;;;;3.47;1.00;;;7.60;99.90;;;;;;5062790;28;20194;-51
2023/12/29 09:39:20;;;;;;;3.17;0.80;;;7.60;99.90;;;;;;5077019;28;20726;-49
2023/12/29 09:41:47;;;;;;;3.90;1.00;;;7.50;99.90;;;;;;5065769;28;20215;-48
2023/12/29 09:44:15;;;;;;;6.37;0.60;;;7.50;99.90;;;;;;5079181;28;20198;-51
2023/12/29 09:46:43;;;;;;;2.83;0.70;;;7.50;99.90;;;;;;5073213;28;20305;-48
2023/12/29 09:49:10;;;;;;;4.43;0.70;;;7.60;99.90;;;;;;5077912;28;20652;-48
2023/12/29 09:51:40;;;;;;;5.03;1.33;;;7.60;99.90;;;;;;5064852;28;20230;-50
2023/12/29 09:54:09;;;;;;;3.77;1.30;;;7.60;99.90;;;;;;5081854;28;20706;-48
2023/12/29 09:56:36;;;;;;;10.03;1.30;;;7.60;99.90;;;;;;5049244;28;20281;-48
2023/12/29 09:59:04;;;;;;;4.73;1.20;;;7.60;99.90;;;;;;5084611;28;20648;-52
2023/12/29 10:01:32;;;;;;;8.20;1.20;;;7.70;99.90;;;;;;5072588;28;20212;-53
2023/12/29 10:04:00;;;;;;;5.87;1.47;;;7.80;99.90;;;;;;5084067;28;20206;-51
2023/12/29 10:06:27;;;;;;;4.20;1.00;;;7.90;99.90;;;;;;5058996;28;20213;-52
2023/12/29 10:08:57;;;;;;;7.53;1.70;;;8.10;99.90;;;;;;5075321;28;20231;-50
2023/12/29 10:11:25;;;;;;;5.07;1.60;;;8.30;99.90;;;;;;5054142;28;20670;-52
2023/12/29 10:13:55;;;;;;;3.10;0.90;;;8.50;99.90;;;;;;5083960;28;20206;-48
2023/12/29 10:16:28;;;;;;;3.67;1.30;;;8.60;99.90;;;;;;5079360;28;20251;-51
2023/12/29 10:19:10;;;;;;;5.63;1.83;;;8.70;99.90;;;;;;5081647;28;20213;-50
2023/12/29 10:21:44;;;;;;;12.03;2.10;;;8.70;99.90;;;;;;5068408;28;20270;-49
2023/12/29 10:24:18;;;;;;;7.50;1.70;;;8.70;99.90;;;;;;5060119;28;20197;-49
2023/12/29 10:26:46;;;;;;;7.53;1.83;;;8.70;99.90;;;;;;5055744;28;20214;-48
2023/12/29 10:29:13;;;;;;;8.80;1.80;;;8.80;99.90;;;;;;5093199;28;20198;-52
2023/12/29 10:31:40;;;;;;;6.77;1.83;;;8.80;99.90;;;;;;5067718;28;20284;-52
2023/12/29 10:34:18;;;;;;;4.90;1.50;;;8.80;99.90;;;;;;5074689;28;20212;-50
2023/12/29 10:36:48;;;;;;;8.43;1.93;;;8.80;99.90;;;;;;5068577;28;20286;-48
2023/12/29 10:39:17;;;;;;;7.43;1.60;;;8.90;99.90;;;;;;5049018;28;20251;-51
2023/12/29 10:41:44;;;;;;;7.00;2.00;;;8.90;99.90;;;;;;5083359;28;20241;-48
2023/12/29 10:44:10;;;;;;;10.00;1.90;;;8.90;99.90;;;;;;5047766;28;20229;-54
2023/12/29 10:46:37;;;;;;;7.93;1.90;;;9.00;99.90;;;;;;5080292;28;20700;-49
2023/12/29 10:49:09;;;;;;;9.07;2.33;;;9.00;99.90;;;;;;5073325;28;20648;-50
2023/12/29 10:51:36;;;;;;;9.47;2.23;;;9.00;99.90;;;;;;5073310;28;20304;-49
2023/12/29 10:54:04;;;;;;;9.00;2.23;;;9.00;99.90;;;;;;5074298;28;20199;-55
2023/12/29 10:56:32;;;;;;;5.23;2.03;;;9.00;99.90;;;;;;5066201;28;20355;-50
2023/12/29 10:59:02;;;;;;;4.67;1.70;;;9.00;99.90;;;;;;5063215;28;20201;-53
2023/12/29 11:01:29;;;;;;;13.80;2.57;;;9.00;99.90;;;;;;5078466;28;20865;-49
2023/12/29 11:04:03;;;;;;;10.20;1.57;;;9.00;99.90;;;;;;5082272;28;20198;-53
2023/12/29 11:06:30;;;;;;;13.00;2.40;;;9.00;99.90;;;;;;5055645;28;21356;-53
2023/12/29 11:08:58;;;;;;;7.37;1.57;;;8.90;99.90;;;;;;5080482;28;20202;-53
2023/12/29 11:11:26;;;;;;;6.47;1.53;;;8.90;99.90;;;;;;5065104;28;20194;-52
2023/12/29 11:13:55;;;;;;;6.77;1.83;;;8.90;99.90;;;;;;5061844;28;20210;-54
2023/12/29 11:16:23;;;;;;;8.10;1.90;;;8.90;99.90;;;;;;5078643;28;20198;-51
2023/12/29 11:18:51;;;;;;;5.60;1.80;;;8.90;99.90;;;;;;5079382;28;20202;-51
2023/12/29 11:21:23;;;;;;;8.20;2.23;;;8.90;99.90;;;;;;5070253;28;20204;-50
2023/12/29 11:23:50;;;;;;;9.80;2.30;;;8.80;99.90;;;;;;5079147;28;20200;-51
2023/12/29 11:26:17;;;;;;;6.30;1.90;;;8.90;99.90;;;;;;5060793;28;20224;-50
2023/12/29 11:28:46;;;;;;;10.10;2.50;;;8.90;99.90;;;;;;5052601;28;20561;-48
2023/12/29 11:31:16;;;;;;;6.87;1.70;;;8.90;99.90;;;;;;5067818;28;20252;-54
2023/12/29 11:33:49;;;;;;;8.33;1.63;;;8.90;99.90;;;;;;5077249;28;20202;-52
2023/12/29 11:36:20;;;;;;;6.37;1.83;;;8.90;99.90;;;;;;5069059;28;20989;-51
2023/12/29 11:38:58;;;;;;;8.33;1.67;;;8.90;99.90;;;;;;5076364;28;20567;-49
2023/12/29 11:41:32;;;;;;;8.60;2.13;;;9.00;99.90;;;;;;5059081;28;20882;-50
2023/12/29 11:44:00;;;;;;;9.97;2.00;;;9.00;99.90;;;;;;5077896;28;20222;-51
2023/12/29 11:46:39;;;;;;;9.87;2.57;;;9.10;99.90;;;;;;5065400;28;20217;-51
2023/12/29 11:49:07;;;;;;;6.23;1.97;;;9.10;99.90;;;;;;5077870;28;20198;-53
2023/12/29 11:51:36;;;;;;;11.23;1.70;;;9.20;99.90;;;;;;5069673;28;20212;-53
2023/12/29 11:54:04;;;;;;;12.47;2.73;;;9.20;99.90;;;;;;5064322;28;20206;-50
2023/12/29 11:56:36;;;;;;;6.47;1.90;;;9.20;99.90;;;;;;5070341;28;20195;-50
2023/12/29 11:59:17;;;;;;;9.10;1.83;;;9.30;99.90;;;;;;5049589;28;20342;-50
2023/12/29 12:01:47;;;;;;;6.03;2.10;;;9.30;99.90;;;;;;5076745;28;20671;-52
2023/12/29 12:04:36;;;;;;;10.20;1.80;;;9.20;99.90;;;;;;5076125;28;20539;-51
2023/12/29 12:07:03;;;;;;;4.47;1.27;;;9.20;99.90;;;;;;5066075;28;20214;-52
2023/12/29 12:09:30;;;;;;;4.73;1.40;;;9.20;99.90;;;;;;5070234;28;20263;-51
2023/12/29 12:11:57;;;;;;;6.70;1.80;;;9.30;99.90;;;;;;5082077;28;20275;-52
2023/12/29 12:14:44;;;;;;;6.40;2.03;;;9.30;99.90;;;;;;5062527;28;20182;-49
2023/12/29 12:17:12;;;;;;;8.23;1.70;;;9.30;99.90;;;;;;5056342;28;20263;-53
2023/12/29 12:19:40;;;;;;;3.50;1.00;;;9.40;99.90;;;;;;5075392;28;20202;-52
2023/12/29 12:22:10;;;;;;;5.90;1.47;;;9.40;99.90;;;;;;5067751;28;20241;-52
2023/12/29 12:24:37;;;;;;;9.93;1.37;;;9.40;99.90;;;;;;5079109;28;20205;-52
2023/12/29 12:27:10;;;;;;;5.73;1.30;;;9.50;99.90;;;;;;5079540;28;20263;-50
2023/12/29 12:29:37;;;;;;;3.80;1.40;;;9.50;99.90;;;;;;5062461;28;20201;-51
2023/12/29 12:32:07;;;;;;;8.43;2.00;;;9.50;99.90;;;;;;5051529;28;20229;-51
2023/12/29 12:34:39;;;;;;;5.47;1.40;;;9.50;99.90;;;;;;5079161;28;20193;-50
2023/12/29 12:37:07;;;;;;;7.90;1.53;;;9.50;99.90;;;;;;5077039;28;20540;-52
2023/12/29 12:39:40;;;;;;;11.10;1.93;;;9.60;99.90;;;;;;5069822;28;20201;-49
2023/12/29 12:42:07;;;;;;;7.30;2.00;;;9.60;99.90;;;;;;5059076;28;20290;-50
2023/12/29 12:44:35;;;;;;;4.83;2.10;;;9.70;99.90;;;;;;5064809;28;20185;-52
2023/12/29 12:47:08;;;;;;;8.60;1.47;;;9.70;99.90;;;;;;5031007;28;20568;-51
2023/12/29 12:49:35;;;;;;;6.60;1.40;;;9.70;99.90;;;;;;5078147;28;20669;-49
2023/12/29 12:52:04;;;;;;;9.43;1.60;;;9.80;99.90;;;;;;5075180;28;20268;-51
2023/12/29 12:54:32;;;;;;;2.67;1.23;;;9.80;99.90;;;;;;5066312;28;20206;-51
2023/12/29 12:56:59;;;;;;;6.70;1.53;;;9.80;99.90;;;;;;5068790;28;20790;-50
2023/12/29 12:59:28;;;;;;;5.83;1.87;;;9.80;99.90;;;;;;5077911;28;20256;-50